Time;durP1;ratioP1;P1;durP2;ratioP2;P2;SDS_P1;SDS_P2;PMS_P1;PMS_P2;Temp;Humidity;BMP_temperature;BMP_pressure;BME280_temperature;BME280_humidity;BME280_pressure;Samples;Min_cycle;Max_cycle;Signal;HPM_P1;HPM_P2
2021/12/28 00:01:54;;;;;;;4.40;1.63;;;;;;;9.38;73.46;95263.59;5053680;28;20182;-67
2021/12/28 00:04:19;;;;;;;5.20;1.77;;;;;;;9.12;74.02;95266.81;5065423;28;20174;-67
2021/12/28 00:06:45;;;;;;;4.90;1.53;;;;;;;9.28;73.14;95256.06;5072097;28;20186;-68
2021/12/28 00:09:10;;;;;;;3.87;2.30;;;;;;;9.25;73.66;95269.53;5071710;28;20189;-70
2021/12/28 00:11:36;;;;;;;7.57;1.67;;;;;;;9.35;72.62;95264.75;5072138;28;20248;-68
2021/12/28 00:14:04;;;;;;;4.93;1.50;;;;;;;9.32;72.44;95259.09;5063471;28;20528;-69
2021/12/28 00:16:33;;;;;;;4.13;1.57;;;;;;;9.27;72.70;95275.38;5072474;28;20198;-68
2021/12/28 00:19:00;;;;;;;5.43;1.40;;;;;;;9.37;72.35;95268.00;5071933;28;20485;-68
2021/12/28 00:21:25;;;;;;;7.10;1.70;;;;;;;9.25;72.93;95269.53;5072139;28;20516;-68
2021/12/28 00:23:51;;;;;;;4.33;1.40;;;;;;;9.30;72.24;95267.16;5052444;28;20424;-69
2021/12/28 00:26:18;;;;;;;6.73;1.73;;;;;;;9.27;72.67;95272.75;5066209;28;20734;-68
2021/12/28 00:28:44;;;;;;;8.87;1.60;;;;;;;9.34;72.15;95257.91;5070287;28;21049;-68
2021/12/28 00:31:11;;;;;;;6.80;1.90;;;;;;;9.33;72.71;95255.50;5072138;28;20507;-68
2021/12/28 00:33:37;;;;;;;3.37;1.53;;;;;;;9.28;72.28;95255.25;5063391;28;20432;-69
2021/12/28 00:36:02;;;;;;;9.70;1.30;;;;;;;9.13;72.93;95253.59;5072034;28;20444;-69
2021/12/28 00:38:28;;;;;;;2.50;1.13;;;;;;;9.22;72.48;95249.81;5072373;28;20197;-69
2021/12/28 00:40:57;;;;;;;4.10;1.40;;;;;;;9.18;72.68;95243.34;5072225;28;20182;-69
2021/12/28 00:43:23;;;;;;;7.40;1.60;;;;;;;9.04;73.45;95246.84;5064288;28;20174;-69
2021/12/28 00:45:49;;;;;;;13.57;2.00;;;;;;;9.06;73.44;95240.47;5071248;28;20833;-68
2021/12/28 00:48:15;;;;;;;6.90;2.00;;;;;;;9.12;72.90;95238.06;5071853;28;20441;-68
2021/12/28 00:50:41;;;;;;;7.63;2.10;;;;;;;9.19;72.31;95237.13;5071979;28;20429;-68
2021/12/28 00:53:07;;;;;;;5.60;1.83;;;;;;;9.15;72.52;95237.69;5070833;28;20461;-69
2021/12/28 00:55:34;;;;;;;5.97;1.73;;;;;;;9.26;72.31;95242.38;5071718;28;20895;-68
2021/12/28 00:58:00;;;;;;;6.50;2.10;;;;;;;9.15;72.48;95237.69;5068407;28;20448;-69
2021/12/28 01:00:29;;;;;;;8.10;2.10;;;;;;;9.02;73.13;95241.00;5071575;28;20657;-69
2021/12/28 01:02:56;;;;;;;14.77;2.27;;;;;;;9.19;72.70;95244.97;5062249;28;20265;-67
2021/12/28 01:05:23;;;;;;;7.07;1.70;;;;;;;9.17;72.90;95239.09;5070533;28;20975;-68
2021/12/28 01:07:49;;;;;;;7.50;1.73;;;;;;;9.24;72.70;95233.94;5071156;28;20420;-68
2021/12/28 01:10:25;;;;;;;6.87;1.90;;;;;;;9.41;72.34;95220.56;5071541;28;20412;-68
2021/12/28 01:12:52;;;;;;;8.23;1.70;;;;;;;9.46;71.37;95218.97;5070539;28;20267;-68
2021/12/28 01:15:19;;;;;;;7.07;1.83;;;;;;;9.45;71.21;95213.94;5071654;28;20451;-68
2021/12/28 01:17:44;;;;;;;6.83;2.07;;;;;;;9.35;71.72;95209.06;5071487;28;20855;-69
2021/12/28 01:20:12;;;;;;;10.40;1.80;;;;;;;9.36;71.30;95200.22;5069992;28;20535;-68
2021/12/28 01:22:38;;;;;;;19.20;2.57;;;;;;;9.31;72.03;95207.81;5068010;28;20186;-69
2021/12/28 01:25:05;;;;;;;8.33;2.37;;;;;;;9.23;72.00;95208.78;5071509;28;20441;-68
2021/12/28 01:27:31;;;;;;;10.00;2.13;;;;;;;9.23;71.86;95200.94;5071454;28;20964;-69
2021/12/28 01:29:56;;;;;;;6.60;1.80;;;;;;;9.31;71.44;95211.25;5071111;28;20416;-68
2021/12/28 01:32:22;;;;;;;6.67;2.23;;;;;;;9.19;72.03;95202.34;5065634;28;20210;-68
2021/12/28 01:34:48;;;;;;;7.60;1.53;;;;;;;9.29;71.54;95196.75;5067832;28;20578;-69
2021/12/28 01:37:13;;;;;;;11.60;2.30;;;;;;;9.26;71.86;95197.97;5070604;28;20181;-67
2021/12/28 01:39:39;;;;;;;7.97;2.20;;;;;;;9.42;71.25;95188.97;5071372;28;20205;-68
2021/12/28 01:42:08;;;;;;;10.90;2.13;;;;;;;9.40;71.60;95187.56;5071219;28;20185;-68
2021/12/28 01:44:34;;;;;;;10.77;1.60;;;;;;;9.48;70.81;95190.84;5071548;28;20182;-68
2021/12/28 01:47:00;;;;;;;10.20;1.77;;;;;;;9.37;70.87;95189.56;5053279;28;20444;-68
2021/12/28 01:49:26;;;;;;;14.10;2.93;;;;;;;9.39;71.06;95186.75;5071192;28;20614;-68
2021/12/28 01:51:52;;;;;;;18.43;2.13;;;;;;;9.44;70.71;95173.13;5070716;28;20456;-68
2021/12/28 01:54:17;;;;;;;11.23;1.90;;;;;;;9.39;71.10;95168.44;5070601;28;20278;-68
2021/12/28 01:56:45;;;;;;;11.87;1.80;;;;;;;9.52;70.70;95152.81;5068384;28;20541;-68
2021/12/28 01:59:18;;;;;;;14.17;2.63;;;;;;;9.49;70.93;95160.25;5070219;28;20801;-69
2021/12/28 02:01:43;;;;;;;6.23;1.70;;;;;;;9.45;70.63;95164.28;5070791;28;20453;-69
2021/12/28 02:04:23;;;;;;;8.27;1.90;;;;;;;9.52;70.51;95154.63;5062856;28;20427;-68
2021/12/28 02:06:50;;;;;;;10.60;2.27;;;;;;;9.41;71.04;95152.59;5063222;28;20218;-68
2021/12/28 02:09:17;;;;;;;8.03;1.90;;;;;;;9.51;70.69;95150.41;5071744;28;20427;-69
2021/12/28 02:11:43;;;;;;;10.13;2.27;;;;;;;9.43;70.83;95134.91;5069347;28;20452;-68
2021/12/28 02:14:09;;;;;;;6.93;1.90;;;;;;;9.49;70.13;95139.34;5058289;28;20420;-69
2021/12/28 02:16:38;;;;;;;10.47;2.33;;;;;;;9.46;70.39;95134.47;5053085;28;20959;-69
2021/12/28 02:19:05;;;;;;;8.80;2.30;;;;;;;9.33;70.64;95138.66;5070808;28;20459;-69
2021/12/28 02:21:31;;;;;;;16.37;4.07;;;;;;;9.41;70.93;95142.13;5059283;28;20425;-69
2021/12/28 02:23:58;;;;;;;11.50;2.33;;;;;;;9.36;70.68;95127.81;5068561;28;20527;-68
2021/12/28 02:26:24;;;;;;;9.90;2.40;;;;;;;9.33;71.08;95120.38;5065581;28;20478;-68
2021/12/28 02:28:49;;;;;;;6.40;1.80;;;;;;;9.18;71.18;95122.34;5081657;28;20844;-67
2021/12/28 02:31:15;;;;;;;7.03;1.80;;;;;;;9.30;70.96;95110.31;5074155;28;20661;-68
2021/12/28 02:33:40;;;;;;;11.90;2.13;;;;;;;9.28;70.76;95109.69;5066500;28;20182;-68
2021/12/28 02:36:06;;;;;;;10.00;2.27;;;;;;;9.13;70.84;95103.81;5074617;28;20622;-69
2021/12/28 02:38:33;;;;;;;17.40;2.33;;;;;;;9.16;71.19;95098.19;5074490;28;20182;-68
2021/12/28 02:40:59;;;;;;;7.10;2.50;;;;;;;9.21;71.13;95101.00;5073907;28;20201;-69
2021/12/28 02:43:25;;;;;;;16.00;2.87;;;;;;;9.12;70.84;95097.78;5066264;28;20428;-68
2021/12/28 02:45:59;;;;;;;7.47;2.00;;;;;;;9.21;70.51;95091.38;5072630;28;20672;-68
2021/12/28 02:48:26;;;;;;;12.70;2.47;;;;;;;9.26;70.36;95088.19;5065930;28;20436;-68
2021/12/28 02:50:56;;;;;;;7.50;2.20;;;;;;;9.04;71.48;95080.47;5074059;28;20420;-68
2021/12/28 02:53:22;;;;;;;9.23;2.10;;;;;;;9.16;70.50;95077.28;5074406;28;20452;-67
2021/12/28 02:55:49;;;;;;;10.50;2.30;;;;;;;9.13;70.90;95069.84;5074134;28;20483;-68
2021/12/28 02:58:33;;;;;;;15.57;1.93;;;;;;;9.24;70.18;95068.47;5070934;28;20446;-68
2021/12/28 03:01:09;;;;;;;8.43;2.13;;;;;;;9.20;70.25;95063.63;5073323;28;20453;-69
2021/12/28 03:03:36;;;;;;;6.60;1.90;;;;;;;9.19;70.21;95062.03;5063821;28;20408;-69
2021/12/28 03:06:04;;;;;;;7.23;2.47;;;;;;;9.31;69.68;95064.06;5073549;28;20456;-69
2021/12/28 03:08:32;;;;;;;9.60;2.07;;;;;;;9.32;69.89;95053.44;5073563;28;20425;-68
2021/12/28 03:11:01;;;;;;;8.43;2.03;;;;;;;9.42;69.48;95041.78;5057071;28;20456;-68
2021/12/28 03:13:31;;;;;;;11.97;2.13;;;;;;;9.20;69.94;95045.34;5074037;28;20456;-68
2021/12/28 03:15:58;;;;;;;7.73;2.27;;;;;;;9.44;69.32;95040.56;5073437;28;20476;-69
2021/12/28 03:18:23;;;;;;;11.43;2.40;;;;;;;9.17;70.43;95037.88;5073361;28;20456;-68
2021/12/28 03:20:49;;;;;;;15.20;3.13;;;;;;;9.30;69.83;95038.94;5072470;28;20417;-69
2021/12/28 03:23:19;;;;;;;10.47;2.43;;;;;;;9.27;70.04;95037.53;5070232;28;20232;-68
2021/12/28 03:25:45;;;;;;;5.90;2.07;;;;;;;9.33;69.58;95033.31;5073293;28;20233;-68
2021/12/28 03:28:23;;;;;;;10.23;2.37;;;;;;;9.46;69.42;95035.13;5069571;28;20992;-68
2021/12/28 03:30:50;;;;;;;11.77;2.70;;;;;;;9.48;69.27;95033.13;5069706;28;20428;-69
2021/12/28 03:33:15;;;;;;;12.90;2.50;;;;;;;9.45;69.43;95026.50;5065088;28;20460;-68
2021/12/28 03:35:41;;;;;;;10.63;2.47;;;;;;;9.47;69.15;95026.28;5073058;28;20444;-69
2021/12/28 03:38:07;;;;;;;11.57;2.03;;;;;;;9.49;69.19;95022.50;5072552;28;20273;-69
2021/12/28 03:40:33;;;;;;;9.20;1.93;;;;;;;9.49;69.05;95026.91;5071693;28;20456;-69
2021/12/28 03:42:59;;;;;;;22.27;2.67;;;;;;;9.49;69.18;95019.06;5072726;28;20421;-68
2021/12/28 03:45:25;;;;;;;15.07;2.70;;;;;;;9.47;68.77;95008.00;5067595;28;20210;-69
2021/12/28 03:47:50;;;;;;;12.27;2.17;;;;;;;9.45;68.99;95021.28;5069850;28;21010;-69
2021/12/28 03:50:18;;;;;;;11.53;2.17;;;;;;;9.43;68.84;95004.97;5072609;28;20216;-68
2021/12/28 03:52:46;;;;;;;12.33;2.27;;;;;;;9.48;68.80;95004.38;5073372;28;20217;-69
2021/12/28 03:55:11;;;;;;;7.40;2.00;;;;;;;9.49;68.79;95000.75;5072808;28;20437;-68
2021/12/28 03:57:39;;;;;;;10.60;2.50;;;;;;;9.50;68.44;95004.97;5068628;28;21265;-69
2021/12/28 04:00:10;;;;;;;15.80;2.17;;;;;;;9.44;68.94;94993.50;5072159;28;20186;-70
2021/12/28 04:02:35;;;;;;;9.33;2.17;;;;;;;9.50;68.74;94994.53;5066506;28;20528;-69
2021/12/28 04:05:01;;;;;;;8.03;1.83;;;;;;;9.25;69.07;94997.69;5070650;28;20531;-68
2021/12/28 04:07:27;;;;;;;6.73;2.00;;;;;;;9.50;68.66;94995.34;5067177;28;20264;-69
2021/12/28 04:12:19;;;;;;;6.60;1.83;;;;;;;9.59;68.24;94998.56;5067952;28;20203;-69
2021/12/28 04:14:45;;;;;;;6.53;2.30;;;;;;;9.61;68.15;94990.53;5067579;28;20214;-69
2021/12/28 04:17:10;;;;;;;8.27;2.20;;;;;;;9.54;67.92;94990.53;5072225;28;21019;-69
2021/12/28 04:19:36;;;;;;;3.20;1.33;;;;;;;9.46;68.42;94990.69;5060685;28;20554;-69
2021/12/28 04:22:02;;;;;;;5.20;1.60;;;;;;;9.58;67.84;94994.31;5066596;28;20202;-69
2021/12/28 04:24:28;;;;;;;5.17;1.90;;;;;;;9.63;68.04;94997.16;5072634;28;20186;-68
2021/12/28 04:26:53;;;;;;;8.47;1.90;;;;;;;9.66;67.70;94994.16;5072219;28;20182;-69
2021/12/28 04:29:19;;;;;;;6.80;1.93;;;;;;;9.71;67.92;94985.69;5072038;28;20413;-68
2021/12/28 04:31:44;;;;;;;7.60;1.50;;;;;;;9.71;67.79;94990.09;5072249;28;20293;-69
2021/12/28 04:34:10;;;;;;;8.00;1.87;;;;;;;9.86;67.04;94988.09;5063455;28;20186;-69
2021/12/28 04:36:36;;;;;;;8.80;1.50;;;;;;;9.89;67.39;94985.09;5062199;28;20257;-69
2021/12/28 04:39:04;;;;;;;5.50;1.60;;;;;;;9.80;67.20;94978.47;5063846;28;20715;-68
2021/12/28 04:41:31;;;;;;;4.97;1.50;;;;;;;9.67;67.80;94974.84;5071117;28;20178;-69
2021/12/28 04:44:00;;;;;;;8.03;2.67;;;;;;;9.71;67.54;94974.41;5070676;28;20515;-69
2021/12/28 04:46:25;;;;;;;11.90;2.10;;;;;;;9.84;67.60;94969.19;5070321;28;20444;-68
2021/12/28 04:48:51;;;;;;;9.40;1.80;;;;;;;9.90;67.30;94971.00;5071572;28;20425;-68
2021/12/28 04:51:16;;;;;;;8.90;2.03;;;;;;;9.88;67.18;94973.00;5071393;28;20182;-68
2021/12/28 04:53:42;;;;;;;8.30;1.80;;;;;;;9.85;67.61;94965.56;5050594;28;20579;-68
2021/12/28 04:56:07;;;;;;;8.20;2.10;;;;;;;9.85;67.20;94965.56;5066512;28;20225;-68
2021/12/28 04:58:33;;;;;;;6.93;2.07;;;;;;;9.85;67.81;94976.03;5047291;28;20531;-71
2021/12/28 05:00:59;;;;;;;4.67;1.90;;;;;;;9.78;67.74;94970.78;5051584;28;20186;-69
2021/12/28 05:03:24;;;;;;;9.80;2.70;;;;;;;9.82;67.86;94955.53;5050444;28;20179;-68
2021/12/28 05:05:53;;;;;;;8.50;2.40;;;;;;;9.74;68.11;94953.91;5051173;28;20211;-68
2021/12/28 05:08:20;;;;;;;6.03;2.13;;;;;;;9.83;68.29;94946.66;5051621;28;20183;-68
2021/12/28 05:10:46;;;;;;;6.40;1.70;;;;;;;9.82;68.20;94956.31;5048944;28;20512;-69
2021/12/28 05:13:12;;;;;;;5.70;1.97;;;;;;;9.88;68.25;94944.22;5051371;28;20827;-69
2021/12/28 05:15:41;;;;;;;10.43;1.90;;;;;;;9.82;68.51;94950.28;5051696;28;20449;-69
2021/12/28 05:18:07;;;;;;;8.53;1.93;;;;;;;9.90;68.30;94950.06;5050735;28;20528;-68
2021/12/28 05:20:33;;;;;;;7.87;2.00;;;;;;;9.88;68.44;94932.97;5051590;28;20428;-68
2021/12/28 05:22:58;;;;;;;6.23;1.63;;;;;;;9.86;68.43;94930.56;5056555;28;20195;-68
2021/12/28 05:25:24;;;;;;;4.70;1.60;;;;;;;9.77;68.69;94921.31;5051253;28;20199;-68
2021/12/28 05:27:50;;;;;;;9.10;2.07;;;;;;;9.66;68.87;94926.16;5051315;28;20650;-68
2021/12/28 05:30:15;;;;;;;4.40;1.40;;;;;;;9.76;69.07;94924.94;5050105;28;20396;-69
2021/12/28 05:32:41;;;;;;;8.27;2.37;;;;;;;9.70;69.02;94925.75;5051050;28;20218;-69
2021/12/28 05:35:07;;;;;;;5.53;1.50;;;;;;;9.82;69.07;94937.22;5050725;28;20570;-69
2021/12/28 05:37:34;;;;;;;5.23;1.70;;;;;;;9.77;68.62;94924.72;5050082;28;20565;-68
2021/12/28 05:39:59;;;;;;;3.90;1.43;;;;;;;9.85;68.67;94921.09;5050500;28;20422;-69
2021/12/28 05:42:25;;;;;;;6.40;2.00;;;;;;;9.90;68.75;94920.47;5051149;28;20425;-68
2021/12/28 05:44:51;;;;;;;6.23;1.90;;;;;;;9.80;68.97;94919.09;5050806;28;20543;-68
2021/12/28 05:47:18;;;;;;;6.20;1.50;;;;;;;9.87;68.81;94921.69;5050693;28;20425;-68
2021/12/28 05:49:44;;;;;;;5.30;1.63;;;;;;;9.85;69.07;94913.25;5049600;28;20183;-67
2021/12/28 05:52:09;;;;;;;6.50;1.93;;;;;;;9.89;68.97;94908.44;5050569;28;21010;-68
2021/12/28 05:54:35;;;;;;;4.13;1.60;;;;;;;9.89;69.08;94913.66;5049608;28;20689;-70
2021/12/28 05:57:01;;;;;;;9.23;2.40;;;;;;;9.81;69.26;94912.84;5047656;28;20498;-67
2021/12/28 05:59:26;;;;;;;7.27;2.27;;;;;;;9.93;69.06;94918.28;5050442;28;20193;-69
2021/12/28 06:01:52;;;;;;;5.10;2.20;;;;;;;9.77;69.11;94909.03;5050603;28;20191;-68
2021/12/28 06:04:17;;;;;;;4.13;1.80;;;;;;;9.84;69.57;94920.28;5056502;28;20187;-68
2021/12/28 06:06:43;;;;;;;4.83;1.67;;;;;;;9.79;69.51;94912.25;5066140;28;20662;-69
2021/12/28 06:09:09;;;;;;;6.80;2.03;;;;;;;9.78;69.93;94904.63;5053126;28;20217;-69
2021/12/28 06:11:34;;;;;;;6.03;1.50;;;;;;;9.74;69.63;94899.00;5054719;28;20638;-69
2021/12/28 06:14:00;;;;;;;7.10;2.63;;;;;;;9.81;69.86;94901.59;5053465;28;20241;-69
2021/12/28 06:16:26;;;;;;;4.40;1.47;;;;;;;9.91;69.54;94901.16;5062671;28;20211;-68
2021/12/28 06:18:51;;;;;;;5.70;1.77;;;;;;;9.85;70.22;94905.38;5054724;28;20193;-68
2021/12/28 06:21:17;;;;;;;5.70;1.50;;;;;;;9.78;69.94;94904.63;5061652;28;20191;-69
2021/12/28 06:23:42;;;;;;;6.93;1.40;;;;;;;9.93;70.00;94902.59;5058054;28;20183;-68
2021/12/28 06:26:08;;;;;;;3.27;1.17;;;;;;;9.77;70.44;94900.38;5053714;28;20202;-69
2021/12/28 06:28:33;;;;;;;6.40;1.73;;;;;;;9.66;70.83;94910.47;5054361;28;20628;-68
2021/12/28 06:30:59;;;;;;;3.93;1.87;;;;;;;9.50;71.47;94905.63;5053097;28;20646;-69
2021/12/28 06:33:25;;;;;;;6.50;1.63;;;;;;;9.65;70.92;94900.19;5052948;28;20229;-68
2021/12/28 06:35:51;;;;;;;11.37;2.30;;;;;;;9.46;71.63;94899.19;5054204;28;20202;-68
2021/12/28 06:38:18;;;;;;;5.90;1.77;;;;;;;9.17;72.80;94901.22;5054713;28;20766;-68
2021/12/28 06:40:44;;;;;;;8.03;1.70;;;;;;;9.43;71.91;94894.38;5054293;28;20285;-69
2021/12/28 06:43:10;;;;;;;2.17;1.30;;;;;;;9.71;71.24;94890.72;5053711;28;20413;-69
2021/12/28 06:45:36;;;;;;;2.90;1.30;;;;;;;9.51;72.11;94881.09;5052866;28;20445;-69
2021/12/28 06:48:02;;;;;;;5.00;1.30;;;;;;;9.30;72.42;94882.94;5053133;28;20205;-69
2021/12/28 06:50:28;;;;;;;1.97;1.30;;;;;;;9.52;72.04;94880.09;5059430;28;20417;-69
2021/12/28 06:52:53;;;;;;;2.20;1.03;;;;;;;9.52;72.01;94887.94;5055621;28;20463;-69
2021/12/28 06:55:19;;;;;;;3.70;1.40;;;;;;;9.67;71.40;94885.91;5052704;28;20658;-69
2021/12/28 06:57:45;;;;;;;3.30;1.30;;;;;;;9.44;72.31;94888.94;5050800;28;20197;-68
2021/12/28 07:00:14;;;;;;;2.97;1.27;;;;;;;9.53;71.91;94885.13;5061307;28;20639;-68
2021/12/28 07:02:40;;;;;;;3.00;2.00;;;;;;;9.49;71.94;94881.31;5052975;28;20518;-68
2021/12/28 07:05:07;;;;;;;3.50;1.00;;;;;;;9.62;71.77;94895.38;5053528;28;20787;-69
2021/12/28 07:07:32;;;;;;;1.30;1.03;;;;;;;9.62;71.35;94890.94;5051611;28;20422;-69
2021/12/28 07:09:58;;;;;;;1.77;1.10;;;;;;;9.57;72.09;94896.00;5053394;28;20477;-69
2021/12/28 07:12:24;;;;;;;3.70;2.77;;;;;;;9.75;71.22;94891.94;5074179;28;20198;-69
2021/12/28 07:14:49;;;;;;;1.10;0.93;;;;;;;9.74;71.40;94895.56;5074476;28;20198;-69
2021/12/28 07:17:15;;;;;;;1.10;1.00;;;;;;;9.76;71.14;94893.53;5077321;28;20586;-67
2021/12/28 07:19:41;;;;;;;1.10;0.93;;;;;;;9.75;71.04;94894.56;5073478;28;20210;-68
2021/12/28 07:22:07;;;;;;;2.70;2.10;;;;;;;9.83;70.88;94894.31;5068944;28;20459;-69
2021/12/28 07:24:32;;;;;;;1.43;0.90;;;;;;;9.93;70.40;94892.13;5073313;28;20580;-67
2021/12/28 07:26:58;;;;;;;0.90;0.70;;;;;;;9.78;70.97;94891.53;5073500;28;20191;-68
2021/12/28 07:29:24;;;;;;;1.43;1.00;;;;;;;9.98;70.10;94879.22;5073437;28;20181;-67
2021/12/28 07:31:50;;;;;;;1.87;1.00;;;;;;;9.92;70.27;94887.06;5073553;28;20645;-70
2021/12/28 07:34:16;;;;;;;1.23;0.90;;;;;;;9.94;70.42;94867.56;5074573;28;20608;-67
2021/12/28 07:36:43;;;;;;;1.80;1.00;;;;;;;9.69;71.34;94872.63;5078669;28;20464;-69
2021/12/28 07:39:09;;;;;;;2.23;1.10;;;;;;;9.98;70.13;94879.22;5056631;28;20413;-68
2021/12/28 07:41:35;;;;;;;1.43;0.93;;;;;;;9.78;70.79;94886.31;5068701;28;20425;-68
2021/12/28 07:44:01;;;;;;;1.20;0.87;;;;;;;9.80;70.98;94890.31;5071189;28;20505;-69
2021/12/28 07:46:27;;;;;;;1.53;1.13;;;;;;;9.91;70.39;94898.53;5072325;28;20475;-68
2021/12/28 07:48:52;;;;;;;1.20;0.90;;;;;;;9.89;70.23;94890.13;5070957;28;20421;-68
2021/12/28 07:51:18;;;;;;;0.80;0.70;;;;;;;10.15;69.58;94891.84;5059711;28;20170;-67
2021/12/28 07:53:43;;;;;;;0.93;0.77;;;;;;;10.12;69.54;94900.09;5071907;28;20202;-67
2021/12/28 07:56:09;;;;;;;1.73;0.80;;;;;;;9.97;70.47;94900.34;5073446;28;20209;-67
2021/12/28 07:58:34;;;;;;;1.83;1.13;;;;;;;10.21;69.58;94914.56;5051840;28;20179;-68
2021/12/28 08:01:00;;;;;;;2.90;0.93;;;;;;;10.14;69.75;94911.19;5064352;28;20199;-69
2021/12/28 08:03:26;;;;;;;2.00;0.90;;;;;;;9.99;70.41;94909.59;5073154;28;20224;-69
2021/12/28 08:05:52;;;;;;;1.13;0.90;;;;;;;9.89;71.01;94914.44;5064039;28;20208;-67
2021/12/28 08:08:18;;;;;;;1.07;0.93;;;;;;;10.11;70.86;94922.06;5064362;28;20269;-68
2021/12/28 08:10:44;;;;;;;1.03;0.80;;;;;;;10.03;71.63;94923.06;5066887;28;20559;-69
2021/12/28 08:13:10;;;;;;;1.30;0.70;;;;;;;10.42;70.21;94915.34;5067131;28;20468;-68
2021/12/28 08:15:35;;;;;;;1.13;1.00;;;;;;;9.92;71.87;94913.22;5067319;28;20291;-68
2021/12/28 08:18:03;;;;;;;1.73;0.70;;;;;;;10.27;70.79;94923.44;5064109;28;20430;-69
2021/12/28 08:20:29;;;;;;;1.13;1.03;;;;;;;10.18;71.30;94922.03;5065566;28;20184;-67
2021/12/28 08:22:56;;;;;;;0.90;0.70;;;;;;;10.30;70.61;94917.78;5066479;28;20456;-69
2021/12/28 08:25:22;;;;;;;1.20;0.60;;;;;;;10.14;70.97;94934.72;5072107;28;20509;-69
2021/12/28 08:27:48;;;;;;;1.10;0.70;;;;;;;10.40;70.59;94922.59;5071255;28;20783;-69
2021/12/28 08:30:14;;;;;;;1.00;0.60;;;;;;;10.53;70.28;94930.41;5070458;28;20437;-68
2021/12/28 08:32:40;;;;;;;0.80;0.60;;;;;;;10.31;70.88;94927.22;5071868;28;20202;-68
2021/12/28 08:35:07;;;;;;;1.33;0.90;;;;;;;10.15;71.63;94933.72;5071698;28;20562;-69
2021/12/28 08:37:33;;;;;;;1.10;0.60;;;;;;;10.49;70.50;94928.44;5072177;28;20182;-69
2021/12/28 08:40:00;;;;;;;0.77;0.50;;;;;;;10.49;70.44;94939.69;5065940;28;20602;-69
2021/12/28 08:42:25;;;;;;;1.10;0.60;;;;;;;10.66;70.09;94928.75;5067051;28;20175;-69
2021/12/28 08:44:51;;;;;;;2.47;0.70;;;;;;;10.73;69.78;94930.34;5069673;28;20440;-69
2021/12/28 08:47:17;;;;;;;0.87;0.70;;;;;;;10.53;70.72;94940.91;5068640;28;20235;-70
2021/12/28 08:49:43;;;;;;;0.77;0.50;;;;;;;10.60;70.11;94941.66;5068266;28;20182;-68
2021/12/28 08:52:09;;;;;;;0.90;0.60;;;;;;;10.34;71.20;94939.91;5071681;28;20880;-68
2021/12/28 08:54:35;;;;;;;1.70;0.70;;;;;;;10.68;70.20;94942.44;5071926;28;20179;-68
2021/12/28 08:57:01;;;;;;;0.80;0.60;;;;;;;10.46;70.28;94950.56;5067896;28;20179;-69
2021/12/28 08:59:27;;;;;;;1.50;1.20;;;;;;;10.62;70.96;94943.28;5070837;28;20417;-68
2021/12/28 09:01:55;;;;;;;2.70;0.60;;;;;;;10.83;69.98;94944.78;5071736;28;20496;-69
2021/12/28 09:04:20;;;;;;;0.80;0.60;;;;;;;11.00;69.46;94945.94;5071844;28;20619;-68
2021/12/28 09:06:46;;;;;;;1.20;0.80;;;;;;;10.90;69.94;94949.00;5071468;28;20523;-68
2021/12/28 09:09:12;;;;;;;1.20;1.00;;;;;;;10.98;70.05;94949.75;5070409;28;20182;-68
2021/12/28 09:11:37;;;;;;;1.00;0.70;;;;;;;10.93;70.27;94954.84;5066753;28;20190;-70
2021/12/28 09:14:03;;;;;;;0.87;0.63;;;;;;;10.89;70.16;94951.84;5071417;28;20672;-69
2021/12/28 09:16:29;;;;;;;0.80;0.50;;;;;;;11.18;69.74;94958.31;5070742;28;20198;-69
2021/12/28 09:18:54;;;;;;;0.90;0.70;;;;;;;11.01;70.02;94959.81;5071136;28;20205;-68
2021/12/28 09:21:20;;;;;;;0.90;0.60;;;;;;;11.40;69.12;94959.81;5071086;28;20575;-68
2021/12/28 09:23:46;;;;;;;1.00;0.80;;;;;;;11.21;69.68;94968.38;5067728;28;20702;-67
2021/12/28 09:26:11;;;;;;;1.80;0.70;;;;;;;11.28;69.72;94967.53;5069202;28;20198;-69
2021/12/28 09:28:37;;;;;;;0.93;0.67;;;;;;;11.65;68.83;94959.81;5071166;28;20574;-68
2021/12/28 09:31:02;;;;;;;1.23;1.00;;;;;;;11.42;69.88;94958.56;5068981;28;20239;-67
2021/12/28 09:33:28;;;;;;;0.90;0.70;;;;;;;11.44;69.71;94964.41;5071181;28;20205;-68
2021/12/28 09:35:54;;;;;;;1.27;0.90;;;;;;;11.37;69.79;94959.22;5071792;28;20680;-68
2021/12/28 09:38:21;;;;;;;1.20;0.63;;;;;;;11.58;69.78;94967.75;5071529;28;20261;-68
2021/12/28 09:40:48;;;;;;;1.60;0.80;;;;;;;11.78;68.79;94969.41;5064174;28;20746;-68
2021/12/28 09:43:14;;;;;;;1.17;1.00;;;;;;;11.71;69.55;94972.09;5071638;28;20416;-70
2021/12/28 09:45:41;;;;;;;1.27;0.80;;;;;;;11.31;70.89;94972.38;5071035;28;20444;-68
2021/12/28 09:48:08;;;;;;;2.33;0.70;;;;;;;11.58;70.06;94988.72;5072373;28;20436;-68
2021/12/28 09:50:34;;;;;;;1.00;0.90;;;;;;;11.89;69.01;94973.97;5071786;28;20802;-68
2021/12/28 09:53:00;;;;;;;2.80;1.17;;;;;;;11.76;69.59;94974.88;5070707;28;20475;-68
2021/12/28 09:55:27;;;;;;;1.87;1.50;;;;;;;11.76;69.61;94974.88;5071372;28;20950;-67
2021/12/28 09:57:53;;;;;;;1.00;0.80;;;;;;;11.84;69.32;94974.59;5068291;28;20424;-69
2021/12/28 10:00:20;;;;;;;0.90;0.70;;;;;;;12.00;68.99;94982.97;5069196;28;20419;-67
2021/12/28 10:02:46;;;;;;;1.00;0.80;;;;;;;12.14;68.55;94979.22;5071558;28;20525;-68
2021/12/28 10:05:14;;;;;;;1.23;0.70;;;;;;;12.06;69.08;94983.94;5070837;28;20523;-66
2021/12/28 10:07:48;;;;;;;1.73;0.93;;;;;;;12.10;69.17;94974.63;5069894;28;20212;-67
2021/12/28 10:10:14;;;;;;;1.10;0.93;;;;;;;12.50;68.33;94976.03;5065341;28;20505;-67
2021/12/28 10:12:42;;;;;;;1.00;0.80;;;;;;;12.03;69.34;94972.03;5069248;28;20479;-68
2021/12/28 10:15:11;;;;;;;1.93;0.90;;;;;;;12.14;69.12;94971.34;5069443;28;20445;-66
2021/12/28 10:17:39;;;;;;;1.90;0.80;;;;;;;12.10;69.35;94977.25;5070528;28;20427;-67
2021/12/28 10:20:10;;;;;;;1.33;0.70;;;;;;;12.40;68.72;94987.84;5060856;28;20421;-66
2021/12/28 10:22:39;;;;;;;1.83;0.93;;;;;;;11.86;69.83;94979.63;5067314;28;20546;-67
2021/12/28 10:25:12;;;;;;;1.00;0.70;;;;;;;11.64;71.72;94981.81;5070693;28;20444;-68
2021/12/28 10:27:43;;;;;;;0.90;0.63;;;;;;;11.77;70.94;94986.97;5061290;28;20436;-68
2021/12/28 10:30:13;;;;;;;1.63;0.83;;;;;;;12.09;70.59;94979.06;5061667;28;20413;-68
2021/12/28 10:32:41;;;;;;;1.00;0.90;;;;;;;11.79;71.19;94990.19;5070381;28;20770;-67
2021/12/28 10:35:10;;;;;;;1.10;0.90;;;;;;;12.24;70.63;94983.16;5070231;28;20525;-69
2021/12/28 10:37:38;;;;;;;1.00;0.80;;;;;;;11.94;71.28;94978.56;5070431;28;20421;-68
2021/12/28 10:40:12;;;;;;;0.87;0.70;;;;;;;12.20;71.56;94974.91;5064727;28;20516;-68
2021/12/28 10:42:43;;;;;;;1.57;0.80;;;;;;;12.43;71.02;94973.47;5071423;28;20425;-69
2021/12/28 10:45:12;;;;;;;1.30;1.13;;;;;;;12.24;70.53;94970.84;5072732;28;20436;-68
2021/12/28 10:47:38;;;;;;;1.33;1.00;;;;;;;12.30;71.04;94974.44;5070866;28;20942;-68
2021/12/28 10:50:25;;;;;;;1.20;0.80;;;;;;;12.32;71.94;94972.38;5072656;28;20447;-68
2021/12/28 10:53:04;;;;;;;1.00;0.90;;;;;;;12.74;70.21;94972.50;5073992;28;20287;-69
2021/12/28 10:55:29;;;;;;;2.90;0.80;;;;;;;12.66;70.44;94969.41;5073874;28;20463;-68
2021/12/28 10:57:55;;;;;;;0.90;0.70;;;;;;;12.63;70.36;94973.25;5069084;28;20440;-69
2021/12/28 11:00:38;;;;;;;1.00;0.90;;;;;;;12.82;70.13;94966.16;5073003;28;20179;-67
2021/12/28 11:03:13;;;;;;;1.00;0.83;;;;;;;12.86;70.04;94964.72;5073625;28;20290;-67
2021/12/28 11:05:38;;;;;;;1.10;0.97;;;;;;;13.16;68.81;94965.75;5073372;28;20447;-68
2021/12/28 11:08:07;;;;;;;0.90;0.70;;;;;;;12.94;69.70;94960.97;5073584;28;20424;-69
2021/12/28 11:10:35;;;;;;;1.63;0.73;;;;;;;12.31;71.55;94962.91;5067804;28;20182;-69
2021/12/28 11:13:01;;;;;;;1.20;0.60;;;;;;;12.96;69.94;94958.94;5073188;28;20459;-67
2021/12/28 11:15:27;;;;;;;1.10;0.70;;;;;;;13.17;69.08;94952.34;5067535;28;20437;-69
2021/12/28 11:17:52;;;;;;;1.00;0.80;;;;;;;13.12;69.20;94964.56;5070092;28;20186;-68
2021/12/28 11:20:31;;;;;;;2.03;1.03;;;;;;;13.41;68.26;94964.81;5072111;28;20412;-68
2021/12/28 11:23:10;;;;;;;1.17;1.07;;;;;;;13.41;68.59;94952.47;5068600;28;20261;-68
2021/12/28 11:25:37;;;;;;;1.40;0.83;;;;;;;13.38;68.55;94945.00;5072945;28;20432;-69
2021/12/28 11:28:17;;;;;;;1.53;1.00;;;;;;;13.26;68.98;94955.47;5072775;28;20919;-68
2021/12/28 11:31:01;;;;;;;1.23;0.90;;;;;;;13.11;69.93;94945.38;5073214;28;20421;-68
2021/12/28 11:33:27;;;;;;;1.00;0.80;;;;;;;12.95;70.35;94949.44;5071626;28;20470;-67
2021/12/28 11:35:52;;;;;;;1.87;1.00;;;;;;;13.18;69.79;94953.19;5072714;28;20526;-67
2021/12/28 11:38:18;;;;;;;1.03;0.83;;;;;;;13.32;68.90;94949.34;5072849;28;20424;-68
2021/12/28 11:40:44;;;;;;;1.83;0.80;;;;;;;13.10;69.62;94950.88;5065839;28;20196;-69